createdAt,value
2019-05-29T00:01:21.692Z,9.77
2019-05-29T00:03:49.962Z,9.72
2019-05-29T00:06:18.641Z,9.68
2019-05-29T00:08:47.127Z,9.65
2019-05-29T00:11:15.615Z,9.61
2019-05-29T00:13:44.086Z,9.59
2019-05-29T00:16:14.524Z,9.57
2019-05-29T00:18:43.037Z,9.55
2019-05-29T00:21:11.971Z,9.54
2019-05-29T00:23:41.599Z,9.52
2019-05-29T00:26:10.424Z,9.49
2019-05-29T00:28:38.914Z,9.48
2019-05-29T00:31:07.750Z,9.44
2019-05-29T00:33:36.286Z,9.42
2019-05-29T00:36:06.159Z,9.39
2019-05-29T00:38:34.843Z,9.37
2019-05-29T00:41:03.341Z,9.34
2019-05-29T00:43:31.840Z,9.32
2019-05-29T00:46:00.340Z,9.29
2019-05-29T00:48:28.815Z,9.27
2019-05-29T00:50:57.290Z,9.23
2019-05-29T00:53:25.800Z,9.20
2019-05-29T00:55:54.276Z,9.16
2019-05-29T00:58:22.747Z,9.13
2019-05-29T01:00:51.289Z,9.10
2019-05-29T01:03:19.862Z,9.07
2019-05-29T01:05:48.319Z,9.07
2019-05-29T01:08:17.007Z,9.08
2019-05-29T01:10:45.481Z,9.08
2019-05-29T01:13:15.076Z,9.09
2019-05-29T01:15:43.735Z,9.09
2019-05-29T01:18:13.698Z,9.09
2019-05-29T01:20:42.427Z,9.11
2019-05-29T01:23:12.083Z,9.11
2019-05-29T01:25:40.672Z,9.08
2019-05-29T01:28:09.142Z,9.06
2019-05-29T01:30:37.643Z,9.05
2019-05-29T01:33:06.194Z,9.02
2019-05-29T01:35:34.670Z,9.01
2019-05-29T01:38:04.449Z,9.02
2019-05-29T01:40:32.915Z,9.03
2019-05-29T01:43:01.378Z,9.05
2019-05-29T01:45:29.892Z,9.08
2019-05-29T01:47:58.365Z,9.09
2019-05-29T01:50:27.943Z,9.11
2019-05-29T01:52:56.526Z,9.13
2019-05-29T01:55:24.977Z,9.14
2019-05-29T01:57:53.448Z,9.16
2019-05-29T02:00:24.003Z,9.18
2019-05-29T02:02:52.632Z,9.19
2019-05-29T02:05:22.046Z,9.20
2019-05-29T02:07:50.774Z,9.22
2019-05-29T02:10:20.295Z,9.22
2019-05-29T02:12:48.856Z,9.23
2019-05-29T02:15:29.359Z,9.22
2019-05-29T02:17:47.925Z,9.24
2019-05-29T02:20:16.927Z,9.23
2019-05-29T02:22:45.526Z,9.23
2019-05-29T02:25:17.321Z,9.22
2019-05-29T02:27:44.317Z,9.21
2019-05-29T02:30:12.896Z,9.24
2019-05-29T02:32:41.377Z,9.22
2019-05-29T02:35:09.932Z,9.21
2019-05-29T02:37:38.664Z,9.21
2019-05-29T02:40:08.409Z,9.20
2019-05-29T02:42:37.033Z,9.20
2019-05-29T02:45:09.000Z,9.18
2019-05-29T02:47:37.455Z,9.18
2019-05-29T02:50:07.943Z,9.17
2019-05-29T02:52:36.446Z,9.17
2019-05-29T02:55:07.065Z,9.18
2019-05-29T02:57:35.556Z,9.17
2019-05-29T03:00:06.193Z,9.17
2019-05-29T03:02:34.668Z,9.17
2019-05-29T03:05:03.687Z,9.16
2019-05-29T03:07:32.761Z,9.16
2019-05-29T03:10:01.493Z,9.18
2019-05-29T03:12:31.443Z,9.18
2019-05-29T03:15:00.249Z,9.19
2019-05-29T03:17:29.811Z,9.22
2019-05-29T03:19:58.485Z,9.25
2019-05-29T03:22:28.689Z,9.27
2019-05-29T03:24:57.281Z,9.27
2019-05-29T03:27:25.764Z,9.28
2019-05-29T03:29:54.254Z,9.29
2019-05-29T03:32:22.735Z,9.30
2019-05-29T03:34:51.189Z,9.32
2019-05-29T03:37:19.699Z,9.34
2019-05-29T03:39:48.178Z,9.37
2019-05-29T03:42:16.873Z,9.40
2019-05-29T03:44:45.411Z,9.45
2019-05-29T03:47:13.886Z,9.50
2019-05-29T03:49:42.362Z,9.56
2019-05-29T03:52:10.875Z,9.59
2019-05-29T03:54:39.367Z,9.62
2019-05-29T03:57:07.842Z,9.65
2019-05-29T03:59:37.460Z,9.69
2019-05-29T04:02:06.085Z,9.73
2019-05-29T04:04:36.220Z,9.80
2019-05-29T04:07:04.787Z,9.89
2019-05-29T04:09:33.482Z,10.00
2019-05-29T04:12:01.911Z,10.10
2019-05-29T04:14:31.625Z,10.20
2019-05-29T04:17:00.688Z,10.31
2019-05-29T04:19:30.494Z,10.38
2019-05-29T04:22:03.039Z,10.49
2019-05-29T04:24:34.024Z,10.59
2019-05-29T04:27:04.543Z,10.68
2019-05-29T04:29:34.218Z,10.77
2019-05-29T04:32:02.773Z,10.91
2019-05-29T04:34:31.688Z,11.06
2019-05-29T04:37:01.561Z,11.11
2019-05-29T04:39:30.591Z,11.19
2019-05-29T04:41:59.173Z,11.20
2019-05-29T04:44:28.799Z,11.21
2019-05-29T04:47:10.389Z,11.25
2019-05-29T04:49:29.257Z,11.32
2019-05-29T04:51:57.979Z,11.34
2019-05-29T04:54:26.471Z,11.38
2019-05-29T04:56:54.919Z,11.44
2019-05-29T04:59:23.458Z,11.50
2019-05-29T05:01:51.921Z,11.53
2019-05-29T05:04:20.393Z,11.56
2019-05-29T05:06:48.909Z,11.58
2019-05-29T05:09:17.375Z,11.60
2019-05-29T05:11:45.924Z,11.60
2019-05-29T05:14:14.426Z,11.59
2019-05-29T05:16:42.937Z,11.58
2019-05-29T05:19:11.461Z,11.56
2019-05-29T05:21:40.351Z,11.53
2019-05-29T05:24:08.940Z,11.53
2019-05-29T05:26:38.399Z,11.54
2019-05-29T05:29:07.119Z,11.58
2019-05-29T05:31:36.502Z,11.63
2019-05-29T05:34:05.444Z,11.71
2019-05-29T05:36:34.672Z,11.78
2019-05-29T05:39:03.228Z,11.87
2019-05-29T05:41:32.711Z,11.91
2019-05-29T05:44:01.417Z,11.96
2019-05-29T05:46:30.961Z,12.00
2019-05-29T05:48:59.492Z,12.01
2019-05-29T05:51:28.017Z,12.07
2019-05-29T05:53:56.508Z,12.13
2019-05-29T05:56:25.002Z,12.21
2019-05-29T05:58:53.534Z,12.31
2019-05-29T06:01:22.021Z,12.39
2019-05-29T06:03:50.508Z,12.47
2019-05-29T06:06:19.033Z,12.55
2019-05-29T06:08:47.516Z,12.62
2019-05-29T06:11:15.995Z,12.69
2019-05-29T06:13:44.494Z,12.74
2019-05-29T06:16:12.978Z,12.89
2019-05-29T06:18:42.789Z,12.94
2019-05-29T06:21:11.615Z,13.00
2019-05-29T06:23:41.130Z,13.04
2019-05-29T06:26:09.668Z,13.07
2019-05-29T06:28:39.114Z,13.13
2019-05-29T06:31:07.662Z,13.23
2019-05-29T06:33:37.327Z,13.32
2019-05-29T06:36:05.961Z,13.39
2019-05-29T06:38:35.597Z,13.42
2019-05-29T06:41:04.307Z,13.47
2019-05-29T06:43:33.792Z,13.51
2019-05-29T06:46:02.378Z,13.57
2019-05-29T06:48:42.885Z,13.66
2019-05-29T06:51:01.504Z,13.70
2019-05-29T06:53:30.017Z,13.71
2019-05-29T06:55:59.716Z,13.72
2019-05-29T06:58:28.738Z,13.72
2019-05-29T07:00:57.216Z,13.77
2019-05-29T07:03:25.706Z,13.75
2019-05-29T07:05:54.278Z,13.66
2019-05-29T07:08:37.387Z,13.66
2019-05-29T07:10:52.950Z,13.70
2019-05-29T07:13:21.493Z,13.80
2019-05-29T07:15:49.943Z,13.94
2019-05-29T07:18:18.430Z,14.05
2019-05-29T07:20:47.072Z,14.22
2019-05-29T07:23:15.597Z,14.28
2019-05-29T07:25:45.490Z,14.28
2019-05-29T07:28:14.346Z,14.23
2019-05-29T07:30:48.263Z,14.18
2019-05-29T07:33:13.094Z,14.05
2019-05-29T07:35:41.609Z,13.90
2019-05-29T07:38:10.091Z,13.80
2019-05-29T07:40:40.488Z,13.69
2019-05-29T07:43:08.817Z,13.66
2019-05-29T07:45:37.781Z,13.76
2019-05-29T07:48:06.744Z,13.87
2019-05-29T07:50:36.356Z,13.90
2019-05-29T07:53:05.094Z,14.03
2019-05-29T07:55:33.584Z,14.17
2019-05-29T07:58:02.090Z,14.25
2019-05-29T08:00:35.730Z,14.37
2019-05-29T08:03:00.855Z,14.52
2019-05-29T08:05:29.377Z,14.64
2019-05-29T08:07:57.862Z,14.77
2019-05-29T08:10:26.697Z,14.86
2019-05-29T08:12:56.018Z,14.96
2019-05-29T08:15:24.790Z,15.06
2019-05-29T08:17:53.262Z,15.18
2019-05-29T08:20:22.108Z,15.32
2019-05-29T08:22:51.065Z,15.38
2019-05-29T08:25:19.823Z,15.47
2019-05-29T08:27:48.861Z,15.49
2019-05-29T08:30:19.070Z,15.41
2019-05-29T08:32:47.539Z,15.27
2019-05-29T08:35:16.196Z,15.24
2019-05-29T08:37:44.964Z,15.27
2019-05-29T08:40:14.122Z,15.38
2019-05-29T08:42:43.172Z,15.50
2019-05-29T08:45:11.860Z,15.59
2019-05-29T08:47:41.395Z,15.50
2019-05-29T08:50:18.542Z,15.46
2019-05-29T08:52:43.835Z,15.47
2019-05-29T08:55:13.901Z,15.50
2019-05-29T08:57:42.691Z,15.59
2019-05-29T09:00:12.006Z,15.65
2019-05-29T09:02:40.483Z,15.72
2019-05-29T09:05:09.680Z,15.73
2019-05-29T09:07:38.139Z,15.74
2019-05-29T09:10:07.462Z,15.77
2019-05-29T09:12:35.999Z,15.80
2019-05-29T09:15:09.667Z,15.84
2019-05-29T09:17:38.547Z,15.90
2019-05-29T09:20:16.299Z,15.94
2019-05-29T09:22:37.908Z,16.00
2019-05-29T09:25:07.128Z,16.02
2019-05-29T09:27:35.632Z,16.05
2019-05-29T09:30:05.152Z,16.10
2019-05-29T09:32:49.265Z,16.09
2019-05-29T09:35:04.380Z,16.04
2019-05-29T09:37:32.844Z,16.02
2019-05-29T09:40:01.386Z,16.02
2019-05-29T09:42:29.904Z,15.99
2019-05-29T09:44:58.374Z,15.94
2019-05-29T09:47:26.880Z,15.93
2019-05-29T09:49:55.397Z,15.96
2019-05-29T09:52:25.376Z,16.01
2019-05-29T09:54:54.678Z,16.02
2019-05-29T09:57:23.183Z,16.04
2019-05-29T09:59:53.820Z,16.07
2019-05-29T10:02:21.963Z,16.07
2019-05-29T10:04:51.609Z,16.07
2019-05-29T10:07:21.355Z,16.09
2019-05-29T10:09:49.833Z,16.13
2019-05-29T10:12:18.332Z,16.13
2019-05-29T10:14:46.853Z,16.17
2019-05-29T10:17:15.332Z,16.24
2019-05-29T10:19:43.871Z,16.31
2019-05-29T10:22:12.336Z,16.28
2019-05-29T10:24:40.813Z,16.46
2019-05-29T10:27:09.331Z,16.48
2019-05-29T10:29:37.818Z,16.48
2019-05-29T10:32:06.288Z,16.48
2019-05-29T10:34:34.812Z,16.50
2019-05-29T10:37:03.428Z,16.52
2019-05-29T10:39:31.908Z,16.55
2019-05-29T10:42:00.417Z,16.59
2019-05-29T10:44:28.884Z,16.64
2019-05-29T10:46:57.363Z,16.63
2019-05-29T10:49:25.949Z,16.67
2019-05-29T10:52:11.785Z,16.72
2019-05-29T10:54:24.692Z,16.76
2019-05-29T10:56:54.959Z,16.81
2019-05-29T10:59:23.661Z,16.80
2019-05-29T11:01:53.718Z,16.83
2019-05-29T11:04:22.562Z,16.81
2019-05-29T11:06:52.464Z,16.86
2019-05-29T11:09:21.249Z,16.88
2019-05-29T11:11:50.698Z,16.89
2019-05-29T11:14:19.290Z,16.90
2019-05-29T11:16:49.046Z,16.90
2019-05-29T11:19:17.751Z,16.90
2019-05-29T11:21:47.980Z,16.92
2019-05-29T11:24:16.641Z,16.97
2019-05-29T11:26:45.147Z,17.02
2019-05-29T11:29:13.699Z,17.05
2019-05-29T11:31:42.199Z,17.13
2019-05-29T11:34:10.725Z,17.17
2019-05-29T11:36:39.205Z,17.23
2019-05-29T11:39:09.215Z,17.33
2019-05-29T11:41:37.828Z,17.35
2019-05-29T11:44:06.295Z,17.33
2019-05-29T11:46:35.026Z,17.28
2019-05-29T11:49:03.775Z,17.30
2019-05-29T11:51:32.333Z,17.33
2019-05-29T11:54:02.345Z,17.36
2019-05-29T11:56:31.096Z,17.38
2019-05-29T11:58:59.783Z,17.33
2019-05-29T12:01:28.275Z,17.30
2019-05-29T12:04:19.595Z,17.23
2019-05-29T12:06:27.083Z,17.13
2019-05-29T12:08:55.818Z,17.03
2019-05-29T12:11:24.617Z,17.03
2019-05-29T12:13:54.160Z,17.00
2019-05-29T12:16:22.874Z,17.01
2019-05-29T12:18:51.551Z,17.06
2019-05-29T12:21:20.021Z,17.07
2019-05-29T12:23:48.576Z,17.12
2019-05-29T12:26:22.635Z,17.18
2019-05-29T12:28:47.304Z,17.18
2019-05-29T12:31:15.791Z,17.20
2019-05-29T12:33:44.291Z,17.33
2019-05-29T12:36:12.776Z,17.44
2019-05-29T12:38:41.250Z,17.53
2019-05-29T12:41:09.764Z,17.62
2019-05-29T12:43:38.236Z,17.71
2019-05-29T12:46:06.708Z,17.84
2019-05-29T12:48:35.237Z,17.92
2019-05-29T12:51:04.166Z,18.00
2019-05-29T12:53:32.870Z,17.97
2019-05-29T12:56:02.556Z,17.86
2019-05-29T12:58:31.167Z,17.73
2019-05-29T13:01:00.687Z,17.58
2019-05-29T13:03:29.431Z,17.50
2019-05-29T13:05:58.206Z,17.47
2019-05-29T13:08:26.894Z,17.49
2019-05-29T13:10:56.232Z,17.59
2019-05-29T13:13:24.791Z,17.64
2019-05-29T13:15:54.630Z,17.57
2019-05-29T13:18:23.360Z,17.52
2019-05-29T13:20:51.839Z,17.56
2019-05-29T13:23:20.380Z,17.56
2019-05-29T13:25:48.844Z,17.50
2019-05-29T13:28:17.316Z,17.49
2019-05-29T13:30:45.822Z,17.45
2019-05-29T13:33:14.307Z,17.45
2019-05-29T13:35:42.798Z,17.53
2019-05-29T13:38:11.331Z,17.59
2019-05-29T13:40:39.821Z,17.63
2019-05-29T13:43:15.052Z,17.61
2019-05-29T13:45:38.641Z,17.69
2019-05-29T13:48:07.537Z,17.80
2019-05-29T13:50:36.162Z,17.87
2019-05-29T13:53:05.515Z,17.88
2019-05-29T13:55:34.216Z,17.84
2019-05-29T13:58:03.782Z,17.81
2019-05-29T14:00:34.779Z,17.79
2019-05-29T14:03:04.849Z,17.77
2019-05-29T14:05:33.540Z,17.73
2019-05-29T14:08:02.761Z,17.66
2019-05-29T14:10:31.678Z,17.68
2019-05-29T14:13:00.928Z,17.71
2019-05-29T14:15:29.925Z,17.82
2019-05-29T14:18:00.595Z,17.91
2019-05-29T14:20:29.530Z,18.01
2019-05-29T14:22:58.208Z,18.10
2019-05-29T14:25:27.102Z,18.18
2019-05-29T14:27:55.656Z,18.27
2019-05-29T14:30:24.544Z,18.37
2019-05-29T14:32:53.039Z,18.40
2019-05-29T14:35:21.509Z,18.30
2019-05-29T14:37:50.033Z,18.16
2019-05-29T14:40:18.893Z,17.97
2019-05-29T14:42:47.340Z,17.88
2019-05-29T14:45:16.145Z,17.79
2019-05-29T14:47:44.625Z,17.73
2019-05-29T14:50:14.488Z,17.66
2019-05-29T14:52:43.009Z,17.58
2019-05-29T14:55:16.200Z,17.44
2019-05-29T14:57:42.042Z,17.46
2019-05-29T15:00:24.161Z,17.55
2019-05-29T15:02:42.400Z,17.61
2019-05-29T15:05:12.196Z,17.66
2019-05-29T15:07:41.201Z,17.73
2019-05-29T15:10:22.642Z,17.65
2019-05-29T15:12:40.629Z,17.56
2019-05-29T15:15:11.400Z,17.53
2019-05-29T15:17:39.907Z,17.56
2019-05-29T15:20:10.106Z,17.61
2019-05-29T15:22:39.783Z,17.69
2019-05-29T15:25:18.343Z,17.78
2019-05-29T15:27:39.510Z,17.81
2019-05-29T15:30:11.102Z,17.93
2019-05-29T15:32:40.059Z,18.01
2019-05-29T15:35:13.805Z,18.16
2019-05-29T15:37:40.064Z,18.28
2019-05-29T15:40:11.032Z,18.42
2019-05-29T15:42:39.596Z,18.48
2019-05-29T15:45:09.911Z,18.37
2019-05-29T15:47:38.514Z,18.38
2019-05-29T15:50:09.299Z,18.47
2019-05-29T15:52:37.973Z,18.54
2019-05-29T15:55:27.042Z,18.51
2019-05-29T15:57:40.303Z,18.39
2019-05-29T16:00:13.650Z,18.23
2019-05-29T16:02:42.392Z,18.26
2019-05-29T16:05:12.936Z,18.29
2019-05-29T16:07:41.780Z,18.34
2019-05-29T16:10:16.448Z,18.35
2019-05-29T16:12:43.739Z,18.38
2019-05-29T16:15:15.143Z,18.43
2019-05-29T16:17:43.945Z,18.46
2019-05-29T16:20:12.505Z,18.43
2019-05-29T16:22:41.033Z,18.40
2019-05-29T16:25:10.816Z,18.42
2019-05-29T16:27:39.537Z,18.52
2019-05-29T16:30:08.796Z,18.69
2019-05-29T16:32:37.276Z,18.86
2019-05-29T16:35:08.501Z,18.99
2019-05-29T16:37:37.027Z,19.12
2019-05-29T16:40:08.678Z,19.24
2019-05-29T16:42:37.144Z,19.31
2019-05-29T16:45:08.591Z,19.42
2019-05-29T16:47:37.060Z,19.58
2019-05-29T16:50:08.785Z,19.76
2019-05-29T16:52:37.857Z,19.88
2019-05-29T16:55:07.589Z,19.97
2019-05-29T16:57:36.050Z,20.10
2019-05-29T17:00:08.853Z,20.22
2019-05-29T17:02:37.700Z,20.28
2019-05-29T17:05:06.744Z,20.33
2019-05-29T17:07:35.563Z,20.35
2019-05-29T17:10:06.282Z,20.36
2019-05-29T17:12:34.750Z,20.40
2019-05-29T17:15:05.663Z,20.47
2019-05-29T17:17:34.115Z,20.62
2019-05-29T17:20:02.742Z,20.80
2019-05-29T17:22:31.290Z,20.97
2019-05-29T17:24:59.778Z,21.12
2019-05-29T17:27:28.246Z,21.21
2019-05-29T17:29:56.761Z,21.24
2019-05-29T17:32:25.442Z,21.25
2019-05-29T17:34:53.946Z,21.15
2019-05-29T17:37:23.148Z,20.94
2019-05-29T17:39:51.613Z,20.85
2019-05-29T17:42:20.311Z,20.68
2019-05-29T17:44:48.873Z,20.34
2019-05-29T17:47:17.759Z,20.02
2019-05-29T17:49:46.304Z,19.68
2019-05-29T17:52:15.738Z,19.29
2019-05-29T17:54:44.369Z,18.88
2019-05-29T17:57:12.842Z,18.46
2019-05-29T17:59:41.424Z,18.09
2019-05-29T18:02:09.905Z,17.77
2019-05-29T18:04:38.360Z,17.47
2019-05-29T18:07:06.882Z,17.17
2019-05-29T18:09:35.364Z,16.92
2019-05-29T18:12:03.894Z,16.72
2019-05-29T18:14:32.425Z,16.55
2019-05-29T18:17:01.066Z,16.36
2019-05-29T18:19:29.544Z,16.20
2019-05-29T18:21:58.519Z,16.09
2019-05-29T18:24:31.980Z,15.98
2019-05-29T18:27:00.451Z,15.88
2019-05-29T18:29:29.679Z,15.80
2019-05-29T18:32:00.063Z,15.73
2019-05-29T18:34:29.573Z,15.70
2019-05-29T18:36:58.387Z,15.68
2019-05-29T18:39:27.006Z,15.66
2019-05-29T18:41:55.837Z,15.61
2019-05-29T18:44:24.856Z,15.58
2019-05-29T18:46:53.769Z,15.52
2019-05-29T18:49:22.626Z,15.49
2019-05-29T18:51:51.583Z,15.43
2019-05-29T18:54:20.057Z,15.39
2019-05-29T18:57:13.091Z,15.34
2019-05-29T18:59:18.819Z,15.30
2019-05-29T19:01:47.295Z,15.24
2019-05-29T19:04:15.774Z,15.17
2019-05-29T19:06:44.298Z,15.09
2019-05-29T19:09:12.842Z,15.02
2019-05-29T19:11:41.326Z,14.95
2019-05-29T19:14:09.847Z,14.86
2019-05-29T19:16:39.658Z,14.79
2019-05-29T19:19:08.345Z,14.74
2019-05-29T19:21:36.852Z,14.69
2019-05-29T19:24:05.397Z,14.64
2019-05-29T19:26:36.758Z,14.58
2019-05-29T19:29:04.205Z,14.52
2019-05-29T19:31:33.359Z,14.44
2019-05-29T19:34:02.043Z,14.36
2019-05-29T19:36:31.772Z,14.29
2019-05-29T19:39:00.387Z,14.21
2019-05-29T19:41:29.982Z,14.13
2019-05-29T19:43:58.644Z,14.01
2019-05-29T19:46:27.124Z,13.92
2019-05-29T19:48:55.596Z,13.83
2019-05-29T19:51:25.209Z,13.77
2019-05-29T19:53:53.865Z,13.72
2019-05-29T19:56:22.335Z,13.65
2019-05-29T19:58:50.873Z,13.57
2019-05-29T20:01:30.614Z,13.50
2019-05-29T20:03:49.612Z,13.42
2019-05-29T20:06:18.146Z,13.33
2019-05-29T20:08:46.672Z,13.25
2019-05-29T20:11:16.413Z,13.17
2019-05-29T20:13:44.970Z,13.07
2019-05-29T20:16:13.437Z,12.98
2019-05-29T20:18:41.921Z,12.89
2019-05-29T20:21:10.460Z,12.80
2019-05-29T20:23:38.974Z,12.72
2019-05-29T20:26:07.480Z,12.66
2019-05-29T20:28:36.366Z,12.61
2019-05-29T20:31:05.115Z,12.53
2019-05-29T20:33:34.536Z,12.47
2019-05-29T20:36:03.177Z,12.41
2019-05-29T20:38:31.650Z,12.34
2019-05-29T20:41:00.113Z,12.24
2019-05-29T20:43:28.642Z,12.17
2019-05-29T20:45:57.118Z,12.09
2019-05-29T20:48:25.595Z,12.00
2019-05-29T20:50:54.130Z,11.91
2019-05-29T20:53:22.606Z,11.81
2019-05-29T20:55:51.084Z,11.72
2019-05-29T20:58:24.471Z,11.64
2019-05-29T21:00:49.808Z,11.57
2019-05-29T21:03:18.463Z,11.49
2019-05-29T21:05:46.965Z,11.43
2019-05-29T21:08:15.440Z,11.36
2019-05-29T21:10:43.931Z,11.34
2019-05-29T21:13:12.926Z,11.30
2019-05-29T21:15:43.761Z,11.27
2019-05-29T21:18:12.294Z,11.22
2019-05-29T21:20:40.822Z,11.19
2019-05-29T21:23:09.288Z,11.13
2019-05-29T21:25:40.732Z,11.11
2019-05-29T21:28:09.455Z,11.08
2019-05-29T21:30:37.965Z,11.02
2019-05-29T21:33:06.444Z,10.98
2019-05-29T21:35:36.074Z,10.93
2019-05-29T21:38:04.708Z,10.87
2019-05-29T21:40:33.181Z,10.81
2019-05-29T21:43:01.685Z,10.78
2019-05-29T21:45:30.203Z,10.72
2019-05-29T21:47:58.712Z,10.65
2019-05-29T21:50:27.221Z,10.58
2019-05-29T21:52:55.712Z,10.53
2019-05-29T21:55:24.185Z,10.49
2019-05-29T21:57:52.716Z,10.43
2019-05-29T22:00:38.000Z,10.37
2019-05-29T22:03:06.541Z,10.31
2019-05-29T22:05:35.015Z,10.25
2019-05-29T22:08:03.497Z,10.16
2019-05-29T22:10:32.145Z,10.12
2019-05-29T22:13:01.001Z,10.10
2019-05-29T22:15:29.702Z,10.07
2019-05-29T22:17:59.178Z,10.02
2019-05-29T22:20:27.780Z,9.95
2019-05-29T22:22:57.191Z,9.88
2019-05-29T22:25:25.906Z,9.83
2019-05-29T22:27:55.614Z,9.77
2019-05-29T22:30:24.217Z,9.71
2019-05-29T22:32:53.251Z,9.64
2019-05-29T22:35:22.073Z,9.56
2019-05-29T22:37:51.540Z,9.50
2019-05-29T22:40:20.369Z,9.44
2019-05-29T22:42:48.843Z,9.40
2019-05-29T22:45:17.742Z,9.33
2019-05-29T22:47:46.265Z,9.25
2019-05-29T22:50:14.896Z,9.17
2019-05-29T22:52:43.463Z,9.08
2019-05-29T22:55:12.134Z,9.00
2019-05-29T22:57:40.625Z,8.93
2019-05-29T23:00:10.009Z,8.85
2019-05-29T23:02:38.530Z,8.79
2019-05-29T23:05:07.599Z,8.76
2019-05-29T23:07:36.078Z,8.72
2019-05-29T23:10:07.940Z,8.70
2019-05-29T23:12:36.418Z,8.68
2019-05-29T23:15:07.874Z,8.64
2019-05-29T23:17:37.401Z,8.62
2019-05-29T23:20:07.891Z,8.60
2019-05-29T23:22:36.437Z,8.58
2019-05-29T23:25:05.941Z,8.57
2019-05-29T23:27:35.260Z,8.55
2019-05-29T23:30:05.460Z,8.53
2019-05-29T23:32:33.990Z,8.50
2019-05-29T23:35:03.525Z,8.48
2019-05-29T23:37:33.098Z,8.47
2019-05-29T23:40:01.682Z,8.42
2019-05-29T23:42:30.152Z,8.37
2019-05-29T23:44:59.443Z,8.34
2019-05-29T23:47:28.135Z,8.30
2019-05-29T23:49:57.555Z,8.27
2019-05-29T23:52:26.159Z,8.25
2019-05-29T23:54:55.703Z,8.24
2019-05-29T23:57:24.239Z,8.21
